Time;durP1;ratioP1;P1;durP2;ratioP2;P2;SDS_P1;SDS_P2;PMS_P1;PMS_P2;Temp;Humidity;BMP_temperature;BMP_pressure;BME280_temperature;BME280_humidity;BME280_pressure;Samples;Min_cycle;Max_cycle;Signal;HPM_P1;HPM_P2
2023/07/04 00:01:24;;;;;;;3.80;1.50;;;;;;;18.63;80.43;150727.84;4930226;29;20243;-61
2023/07/04 00:03:53;;;;;;;1.50;0.97;;;;;;;18.64;80.92;150731.63;4919777;29;20303;-62
2023/07/04 00:06:29;;;;;;;2.47;1.30;;;;;;;18.59;81.88;150719.13;4927842;29;20235;-61
2023/07/04 00:08:56;;;;;;;3.73;1.30;;;;;;;18.62;81.12;150725.34;4905922;29;20242;-62
2023/07/04 00:11:25;;;;;;;1.83;1.27;;;;;;;18.72;80.36;150751.66;4931063;29;20266;-62
2023/07/04 00:13:52;;;;;;;3.23;1.37;;;;;;;18.70;80.34;150746.66;4928219;29;20229;-62
2023/07/04 00:16:44;;;;;;;1.30;1.10;;;;;;;18.67;80.75;150739.16;4930025;29;20239;-62
2023/07/04 00:19:11;;;;;;;1.10;0.90;;;;;;;18.65;81.06;150732.88;4926917;29;20242;-62
2023/07/04 00:21:41;;;;;;;2.23;0.97;;;;;;;18.66;80.06;150735.38;4929392;29;20259;-62
2023/07/04 00:24:07;;;;;;;1.30;1.10;;;;;;;18.69;80.35;150744.16;4927393;29;20242;-62
2023/07/04 00:26:35;;;;;;;2.73;1.00;;;;;;;18.72;80.51;150750.38;4934631;29;20238;-62
2023/07/04 00:29:01;;;;;;;2.00;1.00;;;;;;;18.62;80.62;150726.63;4930357;29;20230;-62
2023/07/04 00:31:29;;;;;;;2.80;1.30;;;;;;;18.52;82.03;150702.88;4928206;29;20239;-62
2023/07/04 00:33:55;;;;;;;2.97;1.30;;;;;;;18.54;81.66;150707.88;4904588;29;20231;-62
2023/07/04 00:36:29;;;;;;;3.80;1.67;;;;;;;18.43;82.16;150680.34;4919373;29;20247;-62
2023/07/04 00:38:57;;;;;;;1.77;1.27;;;;;;;18.33;83.07;150655.31;4911008;29;20282;-62
2023/07/04 00:41:27;;;;;;;2.97;1.30;;;;;;;18.25;83.54;150637.78;4919482;29;20239;-62
2023/07/04 00:43:58;;;;;;;1.73;1.10;;;;;;;18.20;84.00;150624.00;4909613;29;20324;-62
2023/07/04 00:46:37;;;;;;;1.47;1.13;;;;;;;18.19;83.68;150621.50;4913678;29;20239;-62
2023/07/04 00:49:07;;;;;;;2.07;1.30;;;;;;;18.15;83.91;150612.75;4925715;29;20702;-62
2023/07/04 00:51:34;;;;;;;1.90;1.50;;;;;;;18.11;84.17;150602.75;4911902;29;20298;-62
2023/07/04 00:54:04;;;;;;;2.43;1.40;;;;;;;18.11;84.53;150602.75;4912664;29;20241;-62
2023/07/04 00:56:30;;;;;;;3.87;1.50;;;;;;;18.09;84.75;150597.75;4928851;29;20237;-62
2023/07/04 00:58:59;;;;;;;2.83;1.50;;;;;;;18.07;84.82;150593.97;4915691;29;20236;-62
2023/07/04 01:01:26;;;;;;;2.00;1.30;;;;;;;18.02;85.19;150581.44;4907832;29;20245;-62
2023/07/04 01:03:55;;;;;;;1.90;1.33;;;;;;;18.00;85.16;150576.50;4925598;29;20618;-62
2023/07/04 01:06:35;;;;;;;2.40;1.50;;;;;;;17.93;85.83;150560.16;4909307;29;20757;-62
2023/07/04 01:09:05;;;;;;;2.20;1.20;;;;;;;17.94;85.60;150561.44;4898974;29;20229;-62
2023/07/04 01:11:42;;;;;;;3.33;1.40;;;;;;;17.91;85.62;150555.16;4910906;29;20242;-62
2023/07/04 01:14:19;;;;;;;2.00;1.20;;;;;;;17.93;85.57;150558.94;4924739;29;20237;-62
2023/07/04 01:16:46;;;;;;;3.33;1.40;;;;;;;17.99;85.30;150573.94;4905766;29;20231;-62
2023/07/04 01:19:20;;;;;;;2.93;1.47;;;;;;;17.98;85.02;150571.44;4916505;29;20238;-60
2023/07/04 01:21:51;;;;;;;3.47;1.40;;;;;;;17.92;84.92;150556.44;4904916;29;20243;-62
2023/07/04 01:24:29;;;;;;;2.43;1.50;;;;;;;17.97;84.81;150570.16;4926332;29;20234;-59
2023/07/04 01:26:59;;;;;;;3.43;1.50;;;;;;;17.97;85.16;150568.94;4909422;29;20235;-59
2023/07/04 01:29:25;;;;;;;3.30;1.40;;;;;;;17.87;85.58;150545.13;4913460;29;20802;-59
2023/07/04 01:31:52;;;;;;;2.27;1.50;;;;;;;17.80;85.92;150527.63;4925462;29;20229;-59
2023/07/04 01:34:20;;;;;;;2.43;1.53;;;;;;;17.71;86.90;150507.59;4911482;29;20236;-59
2023/07/04 01:36:47;;;;;;;2.77;1.20;;;;;;;17.70;87.31;150503.88;4904758;29;20232;-60
2023/07/04 01:39:15;;;;;;;3.60;1.67;;;;;;;17.73;86.89;150510.09;4929900;29;20227;-59
2023/07/04 01:41:41;;;;;;;2.93;1.20;;;;;;;17.67;87.07;150496.38;4912701;29;20342;-59
2023/07/04 01:44:09;;;;;;;2.03;1.27;;;;;;;17.60;88.01;150478.84;4909111;29;20230;-59
2023/07/04 01:46:36;;;;;;;2.53;1.67;;;;;;;17.52;87.88;150461.34;4910336;29;20233;-59
2023/07/04 01:49:04;;;;;;;2.07;1.40;;;;;;;17.48;88.83;150451.34;4908846;29;20230;-59
2023/07/04 01:51:34;;;;;;;4.50;1.43;;;;;;;17.44;87.78;150441.31;4913980;29;20244;-59
2023/07/04 01:54:01;;;;;;;2.33;1.57;;;;;;;17.38;88.09;150426.31;4913387;29;20252;-59
2023/07/04 01:56:29;;;;;;;3.07;1.20;;;;;;;17.35;87.44;150420.09;4932646;29;20275;-59
2023/07/04 01:58:55;;;;;;;2.20;1.40;;;;;;;17.33;87.81;150413.81;4909010;29;20658;-58
2023/07/04 02:01:27;;;;;;;2.77;1.40;;;;;;;17.27;89.01;150401.28;4933512;29;20271;-59
2023/07/04 02:03:53;;;;;;;2.70;1.40;;;;;;;17.22;88.16;150387.56;4932147;29;20247;-59
2023/07/04 02:06:25;;;;;;;3.80;1.53;;;;;;;17.19;88.70;150381.28;4922880;29;20237;-60
2023/07/04 02:08:53;;;;;;;2.07;1.57;;;;;;;17.15;88.74;150371.28;4921136;29;20229;-59
2023/07/04 02:11:25;;;;;;;4.03;1.60;;;;;;;17.09;88.54;150356.28;4925799;29;20237;-59
2023/07/04 02:13:52;;;;;;;2.97;1.80;;;;;;;17.05;88.48;150346.25;4909999;29;20319;-59
2023/07/04 02:16:45;;;;;;;3.60;1.60;;;;;;;16.95;91.00;150323.75;4924871;29;20245;-59
2023/07/04 02:19:12;;;;;;;2.10;1.60;;;;;;;16.92;89.32;150314.97;4919021;29;20239;-59
2023/07/04 02:21:38;;;;;;;4.27;1.67;;;;;;;16.88;89.91;150306.25;4924907;29;20232;-60
2023/07/04 02:24:05;;;;;;;2.30;1.50;;;;;;;16.84;89.95;150296.25;4932875;29;20238;-59
2023/07/04 02:26:32;;;;;;;4.70;1.43;;;;;;;16.81;89.96;150288.75;4911468;29;20235;-59
2023/07/04 02:28:59;;;;;;;4.15;1.70;;;;;;;16.79;89.96;150284.97;4906115;29;20449;-59
2023/07/04 02:31:26;;;;;;;3.77;1.93;;;;;;;16.90;90.32;150311.25;4928576;29;20708;-59
2023/07/04 02:33:54;;;;;;;3.00;1.80;;;;;;;16.83;90.13;150294.97;4914428;29;20238;-59
2023/07/04 02:36:25;;;;;;;3.13;1.80;;;;;;;16.78;90.22;150282.47;4933075;29;20577;-59
2023/07/04 02:38:52;;;;;;;2.93;1.67;;;;;;;16.72;91.34;150266.22;4917403;29;20238;-59
2023/07/04 02:41:43;;;;;;;4.27;1.80;;;;;;;16.58;92.66;150232.44;4931653;29;20300;-59
2023/07/04 02:44:10;;;;;;;3.07;1.83;;;;;;;16.60;91.63;150238.72;4918562;29;20243;-59
2023/07/04 02:46:37;;;;;;;8.13;1.90;;;;;;;16.65;91.75;150249.97;4913678;29;20239;-59
2023/07/04 02:49:08;;;;;;;2.80;1.80;;;;;;;16.67;91.36;150254.97;4914783;29;20661;-59
2023/07/04 02:51:35;;;;;;;2.50;1.40;;;;;;;16.69;90.09;150259.97;4931653;29;20293;-59
2023/07/04 02:54:02;;;;;;;5.97;2.03;;;;;;;16.62;91.33;150242.44;4918462;29;20236;-60
2023/07/04 02:56:29;;;;;;;3.17;1.70;;;;;;;16.49;92.25;150212.44;4912589;29;20236;-60
2023/07/04 02:58:56;;;;;;;5.60;2.00;;;;;;;16.45;92.50;150202.44;4908263;29;20685;-60
2023/07/04 03:01:25;;;;;;;2.27;1.80;;;;;;;16.56;90.56;150227.44;4924865;29;20631;-59
2023/07/04 03:03:52;;;;;;;6.23;2.23;;;;;;;16.67;89.63;150254.97;4910856;29;20236;-59
2023/07/04 03:06:45;;;;;;;3.57;2.00;;;;;;;16.68;88.43;150258.72;4928225;29;20769;-59
2023/07/04 03:09:13;;;;;;;5.07;2.10;;;;;;;16.64;90.19;150247.44;4906457;29;20240;-59
2023/07/04 03:11:41;;;;;;;6.07;1.70;;;;;;;16.65;89.55;150251.22;4913461;29;20240;-59
2023/07/04 03:14:08;;;;;;;2.07;1.30;;;;;;;16.57;90.56;150231.22;4911898;29;20241;-59
2023/07/04 03:16:34;;;;;;;3.07;1.87;;;;;;;16.51;90.10;150216.22;4928444;29;20279;-59
2023/07/04 03:19:02;;;;;;;6.13;1.80;;;;;;;16.55;89.30;150224.94;4908886;29;20233;-59
2023/07/04 03:21:29;;;;;;;6.17;2.00;;;;;;;16.52;90.25;150218.72;4917818;29;20236;-59
2023/07/04 03:23:59;;;;;;;6.60;2.30;;;;;;;16.64;88.45;150248.72;4914993;29;20575;-59
2023/07/04 03:26:26;;;;;;;6.63;2.50;;;;;;;16.81;85.13;150288.75;4910242;29;20237;-59
2023/07/04 03:28:52;;;;;;;5.60;2.30;;;;;;;16.89;83.83;150307.47;4911523;29;20237;-59
2023/07/04 03:31:43;;;;;;;6.30;3.23;;;;;;;16.99;82.72;150331.25;5166209;23;20285;-59
2023/07/04 03:34:12;;;;;;;6.33;2.10;;;;;;;17.09;80.92;150356.28;4962037;28;20766;-59
2023/07/04 03:36:39;;;;;;;5.60;2.00;;;;;;;17.09;82.35;150357.53;4980863;28;20574;-59
2023/07/04 03:39:07;;;;;;;8.90;2.43;;;;;;;17.12;79.84;150363.78;4963233;28;20293;-59
2023/07/04 03:41:33;;;;;;;9.00;2.77;;;;;;;17.18;78.64;150378.78;4966470;28;20254;-60
2023/07/04 03:44:01;;;;;;;8.67;2.43;;;;;;;17.34;78.20;150417.56;4952676;28;20227;-59
2023/07/04 03:46:27;;;;;;;6.83;2.53;;;;;;;17.30;79.75;150407.56;4966000;28;20233;-60
2023/07/04 03:48:54;;;;;;;8.37;2.93;;;;;;;17.40;78.98;150431.31;4961971;28;20236;-60
2023/07/04 03:51:25;;;;;;;5.73;2.37;;;;;;;17.47;78.01;150448.81;4981466;28;20362;-60
2023/07/04 03:53:52;;;;;;;7.43;2.30;;;;;;;17.51;78.02;150458.84;4964108;28;20271;-59
2023/07/04 03:56:26;;;;;;;5.87;2.40;;;;;;;17.49;78.36;150452.59;4966654;28;20272;-59
2023/07/04 03:58:53;;;;;;;3.60;2.07;;;;;;;17.54;78.09;150465.06;4963306;28;20239;-59
2023/07/04 04:01:25;;;;;;;4.17;2.27;;;;;;;17.58;77.99;150475.06;4966481;28;20600;-59
2023/07/04 04:03:53;;;;;;;7.23;2.30;;;;;;;17.52;78.42;150461.34;4964072;28;20697;-59
2023/07/04 04:06:25;;;;;;;6.20;2.50;;;;;;;17.48;80.77;150450.09;4967411;28;20246;-59
2023/07/04 04:08:52;;;;;;;4.50;2.20;;;;;;;17.45;80.70;150443.81;4963070;28;20227;-59
2023/07/04 04:11:27;;;;;;;5.87;2.37;;;;;;;17.44;81.13;150441.31;4967328;28;20232;-59
2023/07/04 04:13:54;;;;;;;5.33;2.57;;;;;;;17.43;81.18;150438.81;4963863;28;20315;-60
2023/07/04 04:16:25;;;;;;;4.07;2.10;;;;;;;17.47;80.70;150448.81;4967390;28;20245;-60
2023/07/04 04:18:52;;;;;;;5.70;2.20;;;;;;;17.52;80.71;150460.06;4964212;28;20261;-59
2023/07/04 04:21:44;;;;;;;5.90;2.30;;;;;;;17.48;81.88;150451.34;4967160;28;20251;-59
2023/07/04 04:24:10;;;;;;;4.83;2.00;;;;;;;17.43;82.75;150438.81;4963372;28;20259;-59
2023/07/04 04:26:40;;;;;;;6.87;2.30;;;;;;;17.39;82.94;150428.81;4967030;28;20266;-60
2023/07/04 04:29:06;;;;;;;4.73;2.20;;;;;;;17.38;82.75;150427.59;4963818;28;23141;-59
2023/07/04 04:31:37;;;;;;;9.93;2.37;;;;;;;17.41;81.64;150433.81;4967496;28;20684;-59
2023/07/04 04:34:03;;;;;;;5.87;2.00;;;;;;;17.47;82.17;150447.59;4963061;28;20226;-59
2023/07/04 04:36:30;;;;;;;6.30;2.10;;;;;;;17.51;82.75;150457.56;4964049;28;20225;-59
2023/07/04 04:38:59;;;;;;;7.10;2.23;;;;;;;17.58;82.97;150473.84;4964350;28;20628;-59
2023/07/04 04:41:25;;;;;;;6.10;2.30;;;;;;;17.68;81.00;150500.09;4964360;28;20231;-60
2023/07/04 04:43:54;;;;;;;6.77;2.30;;;;;;;17.81;80.50;150530.13;4961680;28;20224;-59
2023/07/04 04:46:25;;;;;;;4.37;2.07;;;;;;;17.96;80.06;150566.44;4967129;28;20243;-59
2023/07/04 04:48:52;;;;;;;3.40;2.13;;;;;;;18.03;79.89;150582.72;4963001;28;20241;-60
2023/07/04 04:51:23;;;;;;;5.07;2.10;;;;;;;18.11;78.34;150602.75;4966840;28;20763;-60
2023/07/04 04:53:50;;;;;;;6.40;1.70;;;;;;;18.23;78.46;150632.78;4963896;28;20368;-60
2023/07/04 04:56:17;;;;;;;5.57;2.00;;;;;;;18.28;78.78;150644.03;4966409;28;20767;-59
2023/07/04 04:58:44;;;;;;;3.57;1.87;;;;;;;18.36;78.20;150662.81;4966142;28;20244;-60
2023/07/04 05:01:15;;;;;;;5.67;1.90;;;;;;;18.35;78.65;150661.53;4963155;28;20236;-59
2023/07/04 05:03:42;;;;;;;7.60;2.30;;;;;;;18.44;78.01;150682.84;4965982;28;20239;-59
2023/07/04 05:06:09;;;;;;;6.97;2.20;;;;;;;18.47;78.66;150690.34;4962880;28;20236;-59
2023/07/04 05:08:36;;;;;;;6.83;2.03;;;;;;;18.46;78.71;150686.56;4966638;28;20253;-60
2023/07/04 05:11:06;;;;;;;5.33;2.10;;;;;;;18.44;79.14;150684.06;4963885;28;20232;-59
2023/07/04 05:13:33;;;;;;;5.10;2.00;;;;;;;18.48;78.63;150691.59;4964699;28;20232;-60
2023/07/04 05:16:00;;;;;;;4.33;2.10;;;;;;;18.46;79.21;150686.56;4959345;28;20248;-60
2023/07/04 05:18:29;;;;;;;5.20;1.90;;;;;;;18.52;78.87;150701.59;4966683;28;20226;-60
2023/07/04 05:21:02;;;;;;;4.57;1.90;;;;;;;18.53;79.46;150704.09;4963435;28;20304;-59
2023/07/04 05:23:30;;;;;;;5.93;2.20;;;;;;;18.50;80.58;150696.59;4965239;28;20237;-60
2023/07/04 05:26:01;;;;;;;3.20;2.03;;;;;;;18.54;80.41;150706.59;4962563;28;20233;-60
2023/07/04 05:28:28;;;;;;;5.57;2.10;;;;;;;18.53;79.68;150704.09;4966442;28;20234;-60
2023/07/04 05:30:58;;;;;;;4.60;2.20;;;;;;;18.55;80.18;150710.34;4963326;28;20255;-60
2023/07/04 05:33:25;;;;;;;5.30;2.00;;;;;;;18.65;79.89;150732.88;4963865;28;20706;-60
2023/07/04 05:36:02;;;;;;;2.80;1.80;;;;;;;18.72;79.70;150750.38;4962374;28;20224;-60
2023/07/04 05:38:29;;;;;;;2.83;1.97;;;;;;;18.76;79.51;150759.19;4964121;28;20317;-60
2023/07/04 05:40:56;;;;;;;4.73;1.90;;;;;;;18.83;79.34;150777.94;4962376;28;20232;-60
2023/07/04 05:43:22;;;;;;;3.87;1.83;;;;;;;18.89;79.18;150791.72;4965812;28;20232;-60
2023/07/04 05:45:49;;;;;;;4.27;2.00;;;;;;;19.21;78.31;150868.13;4965471;28;20756;-60
2023/07/04 05:48:16;;;;;;;3.13;2.13;;;;;;;19.52;77.83;150944.50;4967046;28;20228;-60
2023/07/04 05:50:51;;;;;;;3.97;1.77;;;;;;;19.68;76.52;150983.28;4966302;28;20229;-60
2023/07/04 05:53:21;;;;;;;4.67;1.90;;;;;;;19.74;75.57;150997.09;4963204;28;20259;-60
2023/07/04 05:55:48;;;;;;;3.70;2.10;;;;;;;19.81;75.16;151014.63;4962013;28;20225;-60
2023/07/04 05:58:14;;;;;;;2.10;1.70;;;;;;;19.70;75.79;150987.06;4965289;28;20244;-60
2023/07/04 06:00:41;;;;;;;3.43;1.70;;;;;;;19.77;75.51;151005.84;4964633;28;20240;-60
2023/07/04 06:03:08;;;;;;;7.47;2.03;;;;;;;19.89;73.61;151034.72;4959978;28;20246;-60
2023/07/04 06:05:39;;;;;;;3.80;1.80;;;;;;;20.07;74.03;151077.31;4964961;28;20242;-60
2023/07/04 06:08:06;;;;;;;4.80;1.87;;;;;;;20.12;72.78;151089.84;4961938;28;20716;-60
2023/07/04 06:10:34;;;;;;;4.80;1.80;;;;;;;20.39;70.83;151153.72;4965541;28;20728;-60
2023/07/04 06:13:01;;;;;;;3.00;1.70;;;;;;;20.56;69.71;151196.31;4961940;28;20248;-60
2023/07/04 06:15:28;;;;;;;3.73;1.77;;;;;;;20.49;70.72;151180.00;4965705;28;20749;-60
2023/07/04 06:17:54;;;;;;;3.90;2.17;;;;;;;20.78;70.83;151248.97;4961609;28;20329;-60
2023/07/04 06:20:22;;;;;;;3.00;1.70;;;;;;;20.85;70.42;151265.28;4964202;28;20707;-60
2023/07/04 06:22:49;;;;;;;4.40;2.27;;;;;;;20.65;69.92;151218.88;4962264;28;20266;-60
2023/07/04 06:25:16;;;;;;;4.30;1.93;;;;;;;20.54;70.80;151191.31;4965786;28;20659;-60
2023/07/04 06:27:44;;;;;;;5.93;2.10;;;;;;;20.52;70.82;151185.03;4965723;28;20291;-60
2023/07/04 06:30:12;;;;;;;5.73;2.20;;;;;;;20.37;71.53;151148.72;4960496;28;20232;-60
2023/07/04 06:32:40;;;;;;;4.70;2.20;;;;;;;20.52;71.95;151185.03;4964696;28;20244;-59
2023/07/04 06:35:07;;;;;;;2.80;2.00;;;;;;;20.69;71.28;151227.63;4961791;28;22029;-60
2023/07/04 06:37:34;;;;;;;6.00;2.20;;;;;;;20.79;71.28;151252.75;4965546;28;20236;-60
2023/07/04 06:40:01;;;;;;;4.30;1.97;;;;;;;20.96;70.95;151292.84;4959798;28;20233;-60
2023/07/04 06:42:27;;;;;;;2.47;1.70;;;;;;;20.85;70.86;151265.28;4965247;28;20698;-60
2023/07/04 06:44:57;;;;;;;5.33;2.07;;;;;;;20.94;69.77;151287.84;4960339;28;20241;-60
2023/07/04 06:47:24;;;;;;;8.33;2.23;;;;;;;20.77;69.25;151247.72;4964360;28;20233;-61
2023/07/04 06:49:50;;;;;;;4.43;2.20;;;;;;;20.98;68.36;151297.88;4959425;28;20277;-60
2023/07/04 06:52:17;;;;;;;6.70;2.50;;;;;;;20.99;65.14;151299.09;4963597;28;20293;-61
2023/07/04 06:54:45;;;;;;;9.87;3.07;;;;;;;20.98;65.83;151296.59;4964131;28;20244;-60
2023/07/04 06:57:11;;;;;;;5.90;2.20;;;;;;;21.09;65.78;151324.16;4960485;28;20241;-61
2023/07/04 06:59:38;;;;;;;4.47;2.20;;;;;;;21.01;67.26;151305.38;4963629;28;20240;-60
2023/07/04 07:02:07;;;;;;;5.80;2.53;;;;;;;21.14;65.83;151336.69;4957752;28;20246;-60
2023/07/04 07:04:33;;;;;;;7.00;2.20;;;;;;;21.25;67.67;151363.00;4960688;28;20679;-60
2023/07/04 07:07:00;;;;;;;4.90;1.97;;;;;;;21.46;66.25;151413.16;4963850;28;20605;-60
2023/07/04 07:09:30;;;;;;;5.33;2.33;;;;;;;21.49;64.88;151420.66;4968775;28;20533;-60
2023/07/04 07:11:56;;;;;;;7.70;3.00;;;;;;;21.38;65.30;151395.59;4964049;28;20766;-60
2023/07/04 07:14:23;;;;;;;8.80;2.80;;;;;;;21.32;65.93;151379.31;4967923;28;20293;-60
2023/07/04 07:16:50;;;;;;;6.50;2.20;;;;;;;21.64;65.81;151458.34;4962136;28;20254;-60
2023/07/04 07:19:17;;;;;;;7.47;2.43;;;;;;;21.33;63.51;151383.06;4967860;28;20241;-60
2023/07/04 07:21:44;;;;;;;3.90;2.37;;;;;;;21.34;64.87;151385.56;4968347;28;20725;-60
2023/07/04 07:24:12;;;;;;;7.47;2.20;;;;;;;21.31;65.56;151378.03;4963303;28;20624;-60
2023/07/04 07:26:38;;;;;;;6.13;2.33;;;;;;;21.16;66.68;151341.72;4967087;28;20234;-60
2023/07/04 07:29:05;;;;;;;5.90;2.77;;;;;;;21.10;67.90;151326.69;4964273;28;20242;-60
2023/07/04 07:31:32;;;;;;;7.33;2.80;;;;;;;21.27;67.63;151366.78;4964410;28;20239;-60
2023/07/04 07:33:58;;;;;;;8.23;2.60;;;;;;;21.36;67.20;151389.34;4963760;28;20275;-60
2023/07/04 07:36:30;;;;;;;7.03;2.60;;;;;;;21.28;67.75;151369.28;4965564;28;20233;-61
2023/07/04 07:38:58;;;;;;;5.37;2.50;;;;;;;21.31;67.28;151376.81;4964419;28;20613;-60
2023/07/04 07:41:27;;;;;;;4.10;2.40;;;;;;;21.16;68.60;151341.72;4966426;28;20238;-60
2023/07/04 07:43:54;;;;;;;4.90;2.50;;;;;;;21.27;69.95;151368.00;4963145;28;20714;-60
2023/07/04 07:46:25;;;;;;;5.17;2.37;;;;;;;21.34;69.03;151384.34;4967007;28;20246;-59
2023/07/04 07:48:52;;;;;;;8.67;2.77;;;;;;;21.39;68.99;151396.88;4963515;28;20234;-60
2023/07/04 07:51:28;;;;;;;6.80;3.27;;;;;;;21.56;68.04;151438.22;4967130;28;20596;-60
2023/07/04 07:53:56;;;;;;;5.20;2.40;;;;;;;21.37;69.46;151393.09;4963950;28;20286;-60
2023/07/04 07:56:30;;;;;;;6.37;2.20;;;;;;;21.26;68.93;151365.50;4967133;28;20234;-59
2023/07/04 07:58:58;;;;;;;6.13;2.50;;;;;;;21.46;68.32;151413.16;4964657;28;20235;-61
2023/07/04 08:01:28;;;;;;;3.87;2.47;;;;;;;21.59;67.82;151444.53;4965382;28;20245;-60
2023/07/04 08:03:55;;;;;;;5.47;2.40;;;;;;;22.00;67.28;151543.59;4962803;28;20589;-60
2023/07/04 08:06:30;;;;;;;4.47;2.27;;;;;;;22.13;63.84;151576.22;4967854;28;20228;-60
2023/07/04 08:08:58;;;;;;;8.47;2.73;;;;;;;22.08;63.37;151563.69;4963851;28;20303;-60
2023/07/04 08:11:26;;;;;;;6.17;2.67;;;;;;;22.19;65.04;151591.28;4967084;28;20255;-60
2023/07/04 08:13:54;;;;;;;6.40;2.73;;;;;;;22.18;63.38;151588.75;4961655;28;20239;-60
2023/07/04 08:16:27;;;;;;;4.77;2.10;;;;;;;22.36;63.78;151631.34;4966401;28;20260;-60
2023/07/04 08:18:53;;;;;;;5.70;2.50;;;;;;;22.42;61.77;151646.41;4962533;28;20236;-60
2023/07/04 08:21:27;;;;;;;5.73;2.50;;;;;;;22.59;61.64;151686.59;4966902;28;20242;-60
2023/07/04 08:23:54;;;;;;;7.03;2.10;;;;;;;22.72;60.29;151718.00;4962890;28;20286;-60
2023/07/04 08:26:27;;;;;;;5.10;2.50;;;;;;;22.74;60.16;151724.22;4966677;28;20236;-60
2023/07/04 08:28:55;;;;;;;7.17;2.27;;;;;;;22.65;60.38;151701.66;4963253;28;20704;-60
2023/07/04 08:31:25;;;;;;;7.07;3.03;;;;;;;22.66;59.77;151705.44;4963410;28;20240;-60
2023/07/04 08:33:52;;;;;;;9.07;3.20;;;;;;;22.35;58.97;151630.13;4962436;28;20733;-60
2023/07/04 08:36:45;;;;;;;9.93;2.70;;;;;;;22.32;59.17;151621.31;4965306;28;20447;-61
2023/07/04 08:39:12;;;;;;;8.50;2.80;;;;;;;22.52;58.80;151670.31;4962954;28;20259;-61
2023/07/04 08:41:48;;;;;;;6.50;2.43;;;;;;;22.36;61.10;151632.63;4964436;28;20311;-62
2023/07/04 08:44:18;;;;;;;6.60;2.40;;;;;;;22.04;59.45;151553.63;4963027;28;20230;-62
2023/07/04 08:46:47;;;;;;;5.90;2.17;;;;;;;21.78;58.88;151490.94;4966181;28;20725;-62
2023/07/04 08:49:40;;;;;;;7.43;2.70;;;;;;;21.71;59.48;151474.66;4964238;28;20222;-62
2023/07/04 08:52:13;;;;;;;6.87;2.60;;;;;;;21.67;59.99;151465.84;4963862;28;20602;-62
2023/07/04 08:54:40;;;;;;;4.57;2.77;;;;;;;21.57;58.69;151440.72;4966484;28;20625;-62
2023/07/04 08:57:18;;;;;;;6.23;2.77;;;;;;;21.55;59.47;151434.50;4963593;28;22692;-62
2023/07/04 08:59:47;;;;;;;7.20;2.90;;;;;;;21.57;59.54;151439.50;4966817;28;20231;-62
2023/07/04 09:02:35;;;;;;;6.67;2.60;;;;;;;22.04;60.13;151553.63;4961772;28;20237;-62
2023/07/04 09:05:11;;;;;;;10.07;3.00;;;;;;;22.06;57.52;151558.66;4962391;28;20237;-61
2023/07/04 09:07:46;;;;;;;5.90;2.50;;;;;;;22.25;57.65;151605.03;4966114;28;20230;-62
2023/07/04 09:10:25;;;;;;;8.70;3.10;;;;;;;22.61;57.62;151692.91;4962249;28;20319;-62
2023/07/04 09:12:52;;;;;;;6.80;3.00;;;;;;;22.65;55.48;151701.66;4962763;28;20232;-62
2023/07/04 09:15:24;;;;;;;8.97;2.90;;;;;;;22.87;54.54;151755.59;4966197;28;20577;-61
2023/07/04 09:17:59;;;;;;;5.60;2.77;;;;;;;22.47;54.43;151659.00;4960831;28;20289;-61
2023/07/04 09:20:30;;;;;;;7.00;3.10;;;;;;;22.22;55.32;151598.78;4966628;28;20227;-61
2023/07/04 09:22:58;;;;;;;10.20;3.20;;;;;;;22.22;56.08;151598.78;4961685;28;20234;-61
2023/07/04 09:25:24;;;;;;;8.13;2.90;;;;;;;21.76;54.08;151485.91;4965581;28;20316;-61
2023/07/04 09:27:51;;;;;;;7.80;3.33;;;;;;;22.29;54.51;151613.78;4963328;28;20236;-61
2023/07/04 09:30:19;;;;;;;8.83;3.20;;;;;;;22.62;53.24;151694.13;4965613;28;20236;-61
2023/07/04 09:32:45;;;;;;;6.90;3.33;;;;;;;22.65;53.77;151702.94;4963989;28;20235;-61
2023/07/04 09:35:13;;;;;;;5.63;3.23;;;;;;;22.82;52.74;151744.31;4962429;28;20226;-61
2023/07/04 09:37:58;;;;;;;6.37;3.07;;;;;;;23.07;53.07;151803.25;4965146;28;20224;-61
2023/07/04 09:40:43;;;;;;;6.13;2.97;;;;;;;23.32;51.41;151864.78;4962991;28;20215;-61
2023/07/04 09:43:11;;;;;;;6.67;3.33;;;;;;;23.57;48.78;151926.31;4962025;28;20222;-61
2023/07/04 09:45:39;;;;;;;6.40;3.30;;;;;;;23.32;50.53;151863.53;4965591;28;20225;-61
2023/07/04 09:48:07;;;;;;;6.77;3.17;;;;;;;23.94;48.28;152014.13;4960071;28;20312;-61
2023/07/04 09:50:37;;;;;;;6.73;3.27;;;;;;;23.65;48.96;151943.88;4964402;28;20315;-61
2023/07/04 09:53:09;;;;;;;8.57;3.67;;;;;;;24.07;49.31;152045.56;4959910;28;20229;-61
2023/07/04 09:55:38;;;;;;;8.97;3.57;;;;;;;24.29;48.42;152099.53;4964203;28;20257;-61
2023/07/04 09:58:19;;;;;;;7.90;3.37;;;;;;;24.42;46.45;152132.19;4960656;28;20254;-62
2023/07/04 10:01:00;;;;;;;6.53;3.33;;;;;;;24.15;46.69;152065.66;4964474;28;20222;-62
2023/07/04 10:03:27;;;;;;;7.03;3.53;;;;;;;24.47;47.20;152144.75;4961969;28;20717;-61
2023/07/04 10:05:54;;;;;;;9.37;3.80;;;;;;;24.18;48.46;152073.19;4962053;28;20221;-61
2023/07/04 10:08:22;;;;;;;6.07;3.30;;;;;;;24.40;45.01;152127.16;4965312;28;20551;-61
2023/07/04 10:10:54;;;;;;;6.90;3.27;;;;;;;24.57;45.56;152167.34;4963017;28;20283;-61
2023/07/04 10:13:24;;;;;;;5.97;3.43;;;;;;;24.52;41.88;152156.03;4965073;28;20238;-61
2023/07/04 10:15:51;;;;;;;5.77;3.27;;;;;;;24.14;43.52;152063.16;4960857;28;20538;-61
2023/07/04 10:18:27;;;;;;;7.60;3.77;;;;;;;24.03;43.33;152038.03;4965146;28;20625;-61
2023/07/04 10:20:56;;;;;;;9.37;3.67;;;;;;;24.03;42.71;152036.78;4961796;28;20271;-61
2023/07/04 10:23:26;;;;;;;5.80;3.30;;;;;;;23.94;43.68;152015.41;4965219;28;20218;-61
2023/07/04 10:25:54;;;;;;;7.57;3.37;;;;;;;24.00;45.10;152029.25;4962412;28;20579;-61
2023/07/04 10:28:25;;;;;;;5.77;3.50;;;;;;;24.31;43.16;152105.84;4964937;28;20240;-61
2023/07/04 10:30:56;;;;;;;6.60;3.30;;;;;;;24.29;42.08;152099.53;4961224;28;20247;-61
2023/07/04 10:33:29;;;;;;;5.73;3.50;;;;;;;24.36;41.26;152117.13;4962806;28;20241;-61
2023/07/04 10:35:56;;;;;;;4.87;3.37;;;;;;;24.19;41.27;152075.72;4960394;28;20278;-61
2023/07/04 10:38:35;;;;;;;7.57;3.47;;;;;;;24.23;41.95;152084.47;4963712;28;20224;-61
2023/07/04 10:41:12;;;;;;;8.00;3.37;;;;;;;24.02;42.82;152035.53;4961618;28;20264;-61
2023/07/04 10:43:44;;;;;;;6.17;3.30;;;;;;;24.37;42.87;152119.63;4969292;28;20229;-61
2023/07/04 10:46:16;;;;;;;6.30;3.67;;;;;;;24.49;40.96;152148.50;4964872;28;20232;-61
2023/07/04 10:48:45;;;;;;;9.10;3.90;;;;;;;24.51;40.58;152152.28;4967548;28;20226;-61
2023/07/04 10:51:19;;;;;;;8.60;4.03;;;;;;;24.55;41.59;152163.56;4965495;28;20628;-61
2023/07/04 10:53:47;;;;;;;7.43;3.73;;;;;;;24.55;41.71;152163.56;4969090;28;20239;-61
2023/07/04 10:56:21;;;;;;;7.23;3.97;;;;;;;24.85;41.88;152235.22;4965329;28;20223;-61
2023/07/04 10:58:52;;;;;;;8.47;3.57;;;;;;;24.79;40.75;152220.16;4965863;28;20223;-61
2023/07/04 11:01:48;;;;;;;6.07;3.60;;;;;;;25.22;40.25;152324.38;4966792;28;20225;-61
2023/07/04 11:04:20;;;;;;;6.67;3.70;;;;;;;25.08;41.25;152291.72;4966179;28;20231;-61
2023/07/04 11:06:54;;;;;;;9.67;3.97;;;;;;;25.35;38.83;152357.03;4968134;28;20290;-61
2023/07/04 11:09:22;;;;;;;10.37;3.73;;;;;;;25.20;38.88;152320.59;4965423;28;20690;-61
2023/07/04 11:11:51;;;;;;;7.90;3.53;;;;;;;25.44;39.87;152379.66;4965108;28;20317;-61
2023/07/04 11:14:24;;;;;;;8.27;3.90;;;;;;;25.79;40.59;152465.09;4967913;28;20222;-61
2023/07/04 11:16:54;;;;;;;9.30;3.80;;;;;;;26.29;37.82;152585.78;4962846;28;20326;-61
2023/07/04 11:19:22;;;;;;;6.27;3.50;;;;;;;26.36;38.99;152603.38;4967614;28;20304;-61
2023/07/04 11:22:10;;;;;;;6.77;3.17;;;;;;;26.72;36.81;152690.09;4965408;28;20603;-61
2023/07/04 11:24:43;;;;;;;7.03;3.53;;;;;;;26.36;35.80;152603.38;4968098;28;20298;-62
2023/07/04 11:27:13;;;;;;;9.03;3.80;;;;;;;26.78;36.82;152703.91;4964733;28;20222;-62
2023/07/04 11:29:50;;;;;;;7.43;3.92;;;;;;;26.47;36.12;152629.75;4965715;28;20311;-62
2023/07/04 11:32:20;;;;;;;5.93;3.63;;;;;;;25.90;38.01;152491.50;4963287;28;20227;-62
2023/07/04 11:34:51;;;;;;;6.93;3.50;;;;;;;25.89;39.08;152487.72;4967213;28;20231;-62
2023/07/04 11:37:32;;;;;;;5.23;3.20;;;;;;;25.85;38.13;152477.66;4964494;28;20226;-62